Wilson Algeciras — 9HA2471 — position and weather

sailwx.info

Track history (hours):
 
Tides and Currents Weather Stations Pressure Air Temp Water Temp Dewpoint Dewpoint Depression Visibility Wind Speed Wind Dir Waves Ship Positions

Wilson Algeciras

Last reported at 2014-Nov-21 09:31 UTC. Time now 2014-Nov-22 00:12 UTC.
Position N 38°26' E 015°32'.

Length 88 m; draft 3.1 m.

Type: Cargo ship. MMSI: 248689000.

Date/timePositionNaut miles runAvg speedWind from/ knotsBaromVisibWave heightAir tempDewpointWater temp
2014-Nov-21 09:31N 38°26' E 015°32'1110.5
2014-Nov-21 08:29N 38°18' E 015°42'8 8.1
2014-Nov-21 07:29N 38°11' E 015°37'1110.9
2014-Nov-21 06:30N 38°00' E 015°35'  
2014-Nov-12 13:20N 36°29' E 014°28'7 9.6
2014-Nov-12 12:33N 36°31' E 014°20'9 9.4
2014-Nov-12 11:33N 36°34' E 014°08'9 9.3
2014-Nov-12 10:33N 36°37' E 013°57'9 9.3
2014-Nov-12 09:33N 36°40' E 013°46'12 9.2
2014-Nov-12 08:14N 36°44' E 013°32'  
Track history (hours):
 
Tides and Currents Weather Stations Pressure Air Temp Water Temp Dewpoint Dewpoint Depression Visibility Wind Speed Wind Dir Waves Ship Positions

Wilson Algeciras

Last reported at 2014-Nov-21 09:31 UTC. Time now 2014-Nov-22 00:12 UTC.
Position N 38°26' E 015°32'.

Length 88 m; draft 3.1 m.

Type: Cargo ship. MMSI: 248689000.

Date/timePositionNaut miles runAvg speedWind from/ knotsBaromVisibWave heightAir tempDewpointWater temp
2014-Nov-21 09:31N 38°26' E 015°32'1110.5
2014-Nov-21 08:29N 38°18' E 015°42'8 8.1
2014-Nov-21 07:29N 38°11' E 015°37'1110.9
2014-Nov-21 06:30N 38°00' E 015°35'  
2014-Nov-12 13:20N 36°29' E 014°28'7 9.6
2014-Nov-12 12:33N 36°31' E 014°20'9 9.4
2014-Nov-12 11:33N 36°34' E 014°08'9 9.3
2014-Nov-12 10:33N 36°37' E 013°57'9 9.3
2014-Nov-12 09:33N 36°40' E 013°46'12 9.2
2014-Nov-12 08:14N 36°44' E 013°32'  

Dump ship's entire track history